Time;durP1;ratioP1;P1;durP2;ratioP2;P2;SDS_P1;SDS_P2;PMS_P1;PMS_P2;Temp;Humidity;BMP_temperature;BMP_pressure;BME280_temperature;BME280_humidity;BME280_pressure;Samples;Min_cycle;Max_cycle;Signal;HPM_P1;HPM_P2
2021/12/13 00:00:59;;;;;;;10.80;7.10;;;10.50;99.90;;;;;;5111949;28;20440;-76
2021/12/13 00:03:32;;;;;;;8.63;6.60;;;10.50;99.90;;;;;;5112334;28;20614;-73
2021/12/13 00:06:06;;;;;;;11.77;7.13;;;10.50;99.90;;;;;;5114624;27;20287;-76
2021/12/13 00:08:36;;;;;;;10.63;6.90;;;10.50;99.90;;;;;;5132381;27;20643;-76
2021/12/13 00:11:11;;;;;;;12.87;7.57;;;10.50;99.90;;;;;;5117285;27;20618;-76
2021/12/13 00:13:42;;;;;;;10.57;7.33;;;10.40;99.90;;;;;;5129059;27;20287;-76
2021/12/13 00:16:10;;;;;;;13.50;7.40;;;10.40;99.90;;;;;;5119862;27;20288;-76
2021/12/13 00:18:42;;;;;;;12.73;7.63;;;10.40;99.90;;;;;;5112251;28;20233;-76
2021/12/13 00:21:14;;;;;;;8.13;6.37;;;10.40;99.90;;;;;;5130889;27;20292;-76
2021/12/13 00:23:49;;;;;;;11.93;7.10;;;10.50;99.90;;;;;;5124642;27;20234;-75
2021/12/13 00:26:25;;;;;;;9.20;6.53;;;10.40;99.90;;;;;;5113582;27;20288;-76
2021/12/13 00:28:53;;;;;;;12.27;7.40;;;10.40;99.90;;;;;;5113011;28;20280;-76
2021/12/13 00:31:30;;;;;;;9.87;6.83;;;10.50;99.90;;;;;;5112041;28;20284;-76
2021/12/13 00:34:08;;;;;;;9.23;6.50;;;10.40;99.90;;;;;;5111327;28;20280;-76
2021/12/13 00:36:39;;;;;;;10.33;7.00;;;10.50;99.90;;;;;;5111649;28;20207;-76
2021/12/13 00:39:13;;;;;;;13.10;7.33;;;10.40;99.90;;;;;;5110471;28;20228;-76
2021/12/13 00:41:44;;;;;;;10.07;6.63;;;10.40;99.90;;;;;;5111536;28;20221;-76
2021/12/13 00:44:17;;;;;;;13.10;6.50;;;10.40;99.90;;;;;;5111283;28;20610;-76
2021/12/13 00:46:47;;;;;;;11.00;6.83;;;10.40;99.90;;;;;;5111355;28;20305;-76
2021/12/13 00:49:17;;;;;;;9.23;6.53;;;10.40;99.90;;;;;;5110767;28;20285;-76
2021/12/13 00:51:47;;;;;;;9.83;6.73;;;10.40;99.90;;;;;;5111289;28;20274;-76
2021/12/13 00:54:20;;;;;;;11.37;7.00;;;10.30;99.90;;;;;;5111278;28;20220;-76
2021/12/13 00:57:08;;;;;;;9.77;7.00;;;10.30;99.90;;;;;;5119090;27;20372;-76
2021/12/13 00:59:40;;;;;;;12.37;6.87;;;10.30;99.90;;;;;;5123512;27;20200;-75
2021/12/13 01:02:11;;;;;;;10.47;7.13;;;10.30;99.90;;;;;;5123479;27;20309;-76
2021/12/13 01:05:06;;;;;;;10.30;7.10;;;10.20;99.90;;;;;;5116776;28;20240;-75
2021/12/13 01:08:08;;;;;;;10.40;6.90;;;10.20;99.90;;;;;;5039406;28;20294;-75
2021/12/13 01:11:08;;;;;;;10.87;7.50;;;10.20;99.90;;;;;;5036100;28;20203;-75
2021/12/13 01:13:45;;;;;;;11.90;8.03;;;10.20;99.90;;;;;;4997293;28;20201;-76
2021/12/13 01:16:32;;;;;;;10.97;8.10;;;10.20;99.90;;;;;;4990008;28;20289;-75
2021/12/13 01:19:26;;;;;;;9.63;7.47;;;10.20;99.90;;;;;;5000531;28;20210;-75
2021/12/13 01:22:01;;;;;;;11.27;7.63;;;10.20;99.90;;;;;;4994861;28;20221;-76
2021/12/13 01:25:03;;;;;;;10.80;7.40;;;10.20;99.90;;;;;;4996853;28;20202;-76
2021/12/13 01:27:31;;;;;;;12.37;7.30;;;10.10;99.90;;;;;;4996424;28;20208;-76
2021/12/13 01:29:58;;;;;;;10.33;7.30;;;10.10;99.90;;;;;;4984908;28;20197;-75
2021/12/13 01:32:38;;;;;;;12.43;8.03;;;10.10;99.90;;;;;;5000295;28;20290;-75
2021/12/13 01:35:08;;;;;;;14.00;7.77;;;10.10;99.90;;;;;;5002392;28;20205;-76
2021/12/13 01:37:36;;;;;;;13.73;8.03;;;10.10;99.90;;;;;;5002364;28;20629;-76
2021/12/13 01:40:11;;;;;;;10.97;7.63;;;10.10;99.90;;;;;;4992452;28;20665;-75
2021/12/13 01:42:38;;;;;;;12.13;7.90;;;10.10;99.90;;;;;;5012988;28;20219;-76
2021/12/13 01:45:10;;;;;;;12.77;7.90;;;10.00;99.90;;;;;;5048592;28;20284;-76
2021/12/13 01:47:41;;;;;;;10.60;7.93;;;10.00;99.90;;;;;;5051970;28;20291;-76
2021/12/13 01:50:13;;;;;;;11.87;7.87;;;10.00;99.90;;;;;;5063315;28;20288;-76
2021/12/13 01:52:41;;;;;;;13.17;8.13;;;10.00;99.90;;;;;;5130904;27;20280;-76
2021/12/13 01:55:12;;;;;;;14.27;9.20;;;10.00;99.90;;;;;;5134860;27;20631;-76
2021/12/13 01:57:47;;;;;;;12.77;8.33;;;9.90;99.90;;;;;;5116166;27;20729;-76
2021/12/13 02:00:18;;;;;;;12.33;8.30;;;9.90;99.90;;;;;;5124111;27;20231;-76
2021/12/13 02:02:50;;;;;;;12.63;8.00;;;9.90;99.90;;;;;;5114603;27;20213;-75
2021/12/13 02:05:20;;;;;;;11.17;7.47;;;9.90;99.90;;;;;;5116047;27;20202;-75
2021/12/13 02:07:50;;;;;;;13.80;7.20;;;10.00;99.90;;;;;;5130739;27;20292;-76
2021/12/13 02:10:23;;;;;;;11.27;8.03;;;9.90;99.90;;;;;;5126990;27;20280;-75
2021/12/13 02:12:56;;;;;;;13.23;8.17;;;10.00;99.90;;;;;;5114015;28;20196;-76
2021/12/13 02:18:12;;;;;;;11.13;7.93;;;10.00;99.90;;;;;;5113760;28;20319;-75
2021/12/13 02:20:44;;;;;;;12.73;7.97;;;10.00;99.90;;;;;;5113827;28;20225;-75
2021/12/13 02:23:12;;;;;;;11.53;8.83;;;10.10;99.90;;;;;;5113410;28;20304;-76
2021/12/13 02:25:44;;;;;;;10.80;8.67;;;10.00;99.90;;;;;;5126918;27;20286;-76
2021/12/13 02:28:15;;;;;;;12.97;9.03;;;10.00;99.90;;;;;;5127850;27;20229;-76
2021/12/13 02:30:47;;;;;;;10.90;8.50;;;10.00;99.90;;;;;;5121920;27;20280;-75
2021/12/13 02:33:19;;;;;;;14.07;9.93;;;10.00;99.90;;;;;;5113367;28;20289;-76
2021/12/13 02:35:50;;;;;;;12.27;9.90;;;10.00;99.90;;;;;;5114561;28;20197;-75
2021/12/13 02:38:20;;;;;;;15.60;10.30;;;10.00;99.90;;;;;;5113975;27;20252;-75
2021/12/13 02:40:48;;;;;;;12.40;9.90;;;10.00;99.90;;;;;;5114110;27;20197;-75
2021/12/13 02:43:18;;;;;;;14.90;10.50;;;10.00;99.90;;;;;;5130419;27;20215;-76
2021/12/13 02:45:49;;;;;;;15.30;10.90;;;9.90;99.90;;;;;;5114082;28;20223;-76
2021/12/13 02:48:19;;;;;;;15.63;11.37;;;9.90;99.90;;;;;;5120117;27;20205;-75
2021/12/13 02:50:52;;;;;;;16.03;11.33;;;9.90;99.90;;;;;;5124475;27;20682;-76
2021/12/13 02:53:24;;;;;;;15.97;11.00;;;9.90;99.90;;;;;;5120381;27;20671;-76
2021/12/13 02:55:51;;;;;;;12.63;8.93;;;9.90;99.90;;;;;;5124982;27;20898;-75
2021/12/13 02:58:22;;;;;;;13.90;9.57;;;9.90;99.90;;;;;;5118789;27;20209;-76
2021/12/13 03:00:57;;;;;;;13.93;9.80;;;9.90;99.90;;;;;;5129936;27;20740;-75
2021/12/13 03:03:27;;;;;;;14.63;9.70;;;9.90;99.90;;;;;;5113378;27;20221;-76
2021/12/13 03:05:58;;;;;;;14.30;9.20;;;9.90;99.90;;;;;;5113523;27;20239;-75
2021/12/13 03:08:36;;;;;;;11.93;9.40;;;9.90;99.90;;;;;;5127399;27;20291;-75
2021/12/13 03:11:10;;;;;;;13.30;10.00;;;9.90;99.90;;;;;;5130071;27;20224;-75
2021/12/13 03:13:38;;;;;;;14.37;9.27;;;9.90;99.90;;;;;;5113664;27;20281;-75
2021/12/13 03:16:10;;;;;;;11.37;9.37;;;9.80;99.90;;;;;;5126964;27;20293;-76
2021/12/13 03:18:44;;;;;;;14.53;10.37;;;9.80;99.90;;;;;;5113259;27;20295;-76
2021/12/13 03:21:47;;;;;;;11.77;9.53;;;9.80;99.90;;;;;;5115554;27;20204;-76
2021/12/13 03:24:37;;;;;;;13.97;9.47;;;9.80;99.90;;;;;;5081897;28;20303;-75
2021/12/13 03:27:26;;;;;;;11.23;9.50;;;9.80;99.90;;;;;;5080925;28;20289;-75
2021/12/13 03:30:01;;;;;;;12.43;9.83;;;9.80;99.90;;;;;;5087945;28;20236;-75
2021/12/13 03:32:36;;;;;;;13.27;10.27;;;9.80;99.90;;;;;;5072936;28;20280;-75
2021/12/13 03:35:20;;;;;;;13.50;10.63;;;9.80;99.90;;;;;;5074396;28;20278;-76
2021/12/13 03:37:57;;;;;;;13.03;10.00;;;9.80;99.90;;;;;;5069460;28;20312;-75
2021/12/13 03:40:26;;;;;;;13.60;9.97;;;9.70;99.90;;;;;;5072456;28;20654;-75
2021/12/13 03:42:59;;;;;;;12.23;10.03;;;9.70;99.90;;;;;;5083098;28;20304;-75
2021/12/13 03:45:29;;;;;;;13.20;9.83;;;9.70;99.90;;;;;;5077920;28;20257;-76
2021/12/13 03:48:02;;;;;;;12.37;10.03;;;9.70;99.90;;;;;;5072213;28;20198;-75
2021/12/13 03:50:33;;;;;;;14.50;10.40;;;9.70;99.90;;;;;;5087744;28;20289;-76
2021/12/13 03:53:02;;;;;;;14.57;10.50;;;9.70;99.90;;;;;;5080238;28;20187;-76
2021/12/13 03:55:33;;;;;;;13.97;10.30;;;9.70;99.90;;;;;;5070797;28;20304;-75
2021/12/13 03:58:05;;;;;;;13.53;10.53;;;9.70;99.90;;;;;;5083031;28;20281;-76
2021/12/13 04:00:35;;;;;;;14.37;10.60;;;9.70;99.90;;;;;;5087804;28;20256;-76
2021/12/13 04:03:07;;;;;;;14.53;11.80;;;9.70;99.90;;;;;;5124797;27;20304;-76
2021/12/13 04:05:36;;;;;;;14.23;11.57;;;9.60;99.90;;;;;;5124018;27;20291;-76
2021/12/13 04:08:07;;;;;;;14.60;11.20;;;9.60;99.90;;;;;;5119334;27;20570;-76
2021/12/13 04:10:38;;;;;;;14.50;11.60;;;9.60;99.90;;;;;;5120434;27;20287;-76
2021/12/13 04:13:12;;;;;;;13.47;11.10;;;9.60;99.90;;;;;;5112216;27;20232;-76
2021/12/13 04:15:54;;;;;;;14.43;11.50;;;9.60;99.90;;;;;;5126495;27;20216;-76
2021/12/13 04:18:40;;;;;;;12.83;11.07;;;9.60;99.90;;;;;;5112307;28;20203;-76
2021/12/13 04:21:08;;;;;;;15.27;11.80;;;9.50;99.90;;;;;;5111992;28;20200;-75
2021/12/13 04:23:42;;;;;;;14.93;11.27;;;9.50;99.90;;;;;;5125239;27;20307;-76
2021/12/13 04:26:12;;;;;;;16.47;11.90;;;9.50;99.90;;;;;;5113654;27;20229;-76
2021/12/13 04:28:42;;;;;;;15.93;11.43;;;9.50;99.90;;;;;;5124458;27;20243;-75
2021/12/13 04:31:12;;;;;;;16.63;11.80;;;9.50;99.90;;;;;;5113771;27;20197;-76
2021/12/13 04:33:43;;;;;;;15.10;11.37;;;9.50;99.90;;;;;;5131762;27;20280;-76
2021/12/13 04:36:14;;;;;;;15.80;12.07;;;9.50;99.90;;;;;;5120496;27;20295;-76
2021/12/13 04:38:50;;;;;;;15.57;12.17;;;9.50;99.90;;;;;;5130926;27;20251;-75
2021/12/13 04:41:24;;;;;;;14.93;11.67;;;9.50;99.90;;;;;;5121760;27;20787;-76
2021/12/13 04:43:57;;;;;;;16.70;12.17;;;9.50;99.90;;;;;;5119709;28;20221;-75
2021/12/13 04:46:27;;;;;;;16.73;12.60;;;9.50;99.90;;;;;;5127803;28;20296;-75
2021/12/13 04:48:58;;;;;;;16.10;12.13;;;9.50;99.90;;;;;;5120452;28;20204;-75
2021/12/13 04:51:29;;;;;;;15.70;11.20;;;9.40;99.90;;;;;;5120289;28;20289;-76
2021/12/13 04:54:00;;;;;;;17.07;11.13;;;9.40;99.90;;;;;;5118827;28;20196;-75
2021/12/13 04:56:30;;;;;;;13.07;11.07;;;9.40;99.90;;;;;;5119865;27;20197;-75
2021/12/13 04:59:01;;;;;;;14.50;9.97;;;9.40;99.90;;;;;;5125489;28;20193;-76
2021/12/13 05:01:29;;;;;;;13.67;9.77;;;9.40;99.90;;;;;;5114627;27;20196;-75
2021/12/13 05:04:01;;;;;;;13.57;10.33;;;9.40;99.90;;;;;;5127291;27;20646;-75
2021/12/13 05:06:31;;;;;;;14.83;9.93;;;9.40;99.90;;;;;;5128056;27;20233;-75
2021/12/13 05:09:00;;;;;;;13.60;10.60;;;9.40;99.90;;;;;;5122365;27;20280;-75
2021/12/13 05:11:33;;;;;;;13.17;10.40;;;9.40;99.90;;;;;;5120353;27;20276;-75
2021/12/13 05:14:01;;;;;;;13.20;9.93;;;9.40;99.90;;;;;;5116930;28;20719;-76
2021/12/13 05:16:39;;;;;;;13.27;9.70;;;9.30;99.90;;;;;;5119595;28;20289;-75
2021/12/13 05:19:07;;;;;;;13.50;10.30;;;9.30;99.90;;;;;;5111343;28;20656;-75
2021/12/13 05:21:37;;;;;;;13.77;10.87;;;9.30;99.90;;;;;;5114026;28;20295;-76
2021/12/13 05:24:10;;;;;;;14.53;10.00;;;9.30;99.90;;;;;;5130758;27;20334;-76
2021/12/13 05:26:46;;;;;;;12.93;9.63;;;9.30;99.90;;;;;;5132390;27;20287;-75
2021/12/13 05:29:24;;;;;;;14.30;9.47;;;9.30;99.90;;;;;;5115123;27;20950;-75
2021/12/13 05:31:52;;;;;;;12.30;10.10;;;9.20;99.90;;;;;;5115018;28;20252;-76
2021/12/13 05:34:19;;;;;;;12.17;9.37;;;9.20;99.90;;;;;;5114737;28;20276;-75
2021/12/13 05:36:56;;;;;;;14.27;9.90;;;9.20;99.90;;;;;;5114418;28;20282;-75
2021/12/13 05:39:23;;;;;;;12.07;7.97;;;9.10;99.90;;;;;;5114707;28;20311;-75
2021/12/13 05:41:55;;;;;;;12.43;9.33;;;9.10;99.90;;;;;;5122602;27;20292;-75
2021/12/13 05:44:28;;;;;;;13.00;8.67;;;9.10;99.90;;;;;;5123480;27;20767;-75
2021/12/13 05:46:56;;;;;;;10.37;8.30;;;9.10;99.90;;;;;;5131498;27;20248;-76
2021/12/13 05:49:26;;;;;;;10.93;7.90;;;9.10;99.90;;;;;;5125042;27;20288;-76
2021/12/13 05:51:56;;;;;;;10.57;7.37;;;9.10;99.90;;;;;;5114647;27;20290;-76
2021/12/13 05:54:27;;;;;;;9.17;7.13;;;9.00;99.90;;;;;;5117743;27;20283;-76
2021/12/13 05:56:59;;;;;;;9.47;7.13;;;9.10;99.90;;;;;;5114747;28;20286;-76
2021/12/13 05:59:29;;;;;;;9.37;6.33;;;9.00;99.90;;;;;;5118209;27;20747;-75
2021/12/13 06:02:11;;;;;;;10.63;7.47;;;9.00;99.90;;;;;;5126383;27;20282;-75
2021/12/13 06:04:43;;;;;;;11.43;8.00;;;9.00;99.90;;;;;;5127633;27;20269;-76
2021/12/13 06:07:18;;;;;;;10.10;7.13;;;9.00;99.90;;;;;;5114947;27;20225;-76
2021/12/13 06:09:53;;;;;;;9.97;7.70;;;8.90;99.90;;;;;;5132910;27;20193;-76
2021/12/13 06:12:38;;;;;;;9.57;7.23;;;8.90;99.90;;;;;;5123506;27;20224;-76
2021/12/13 06:15:24;;;;;;;9.93;7.60;;;8.90;99.90;;;;;;5119883;27;20290;-77
2021/12/13 06:17:56;;;;;;;10.20;8.00;;;8.90;99.90;;;;;;5121409;27;20200;-77
2021/12/13 06:20:29;;;;;;;9.90;8.17;;;8.90;99.90;;;;;;5125622;27;20225;-76
2021/12/13 06:23:06;;;;;;;11.50;8.73;;;8.90;99.90;;;;;;5121861;27;20657;-76
2021/12/13 06:25:33;;;;;;;11.20;8.27;;;8.80;99.90;;;;;;5124742;27;20303;-76
2021/12/13 06:28:02;;;;;;;13.67;9.10;;;8.80;99.90;;;;;;5133495;27;20288;-76
2021/12/13 06:30:30;;;;;;;12.30;8.63;;;8.80;99.90;;;;;;5120079;27;20300;-76
2021/12/13 06:33:01;;;;;;;12.53;9.53;;;8.80;99.90;;;;;;5124383;27;20282;-76
2021/12/13 06:35:39;;;;;;;13.67;8.47;;;8.70;99.90;;;;;;5122384;27;20224;-78
2021/12/13 06:38:40;;;;;;;12.30;9.27;;;8.70;99.90;;;;;;5124027;27;20311;-77
2021/12/13 06:41:12;;;;;;;13.07;9.43;;;8.60;99.90;;;;;;5122347;27;20282;-77
2021/12/13 06:43:43;;;;;;;13.50;9.87;;;8.50;99.90;;;;;;5125174;27;20301;-78
2021/12/13 06:46:28;;;;;;;14.07;9.60;;;8.50;99.90;;;;;;5126954;27;20733;-78
2021/12/13 06:48:59;;;;;;;11.77;9.20;;;8.40;99.90;;;;;;5123815;27;20294;-77
2021/12/13 06:51:40;;;;;;;13.60;10.00;;;8.40;99.90;;;;;;5123168;27;20207;-76
2021/12/13 06:54:10;;;;;;;12.33;9.20;;;8.40;99.90;;;;;;5124755;27;20339;-76
2021/12/13 06:56:39;;;;;;;13.07;9.50;;;8.20;99.90;;;;;;5121097;27;20285;-76
2021/12/13 06:59:11;;;;;;;13.33;9.43;;;8.20;99.90;;;;;;5116358;27;20277;-77
2021/12/13 07:01:39;;;;;;;12.70;9.20;;;8.20;99.90;;;;;;5127990;27;20617;-76
2021/12/13 07:04:11;;;;;;;13.70;9.17;;;8.10;99.90;;;;;;5116824;27;20308;-76
2021/12/13 07:06:39;;;;;;;14.00;9.73;;;8.10;99.90;;;;;;5126868;27;20747;-76
2021/12/13 07:09:14;;;;;;;13.90;9.70;;;8.10;99.90;;;;;;5119532;27;20380;-76
2021/12/13 07:11:47;;;;;;;14.60;9.03;;;8.00;99.90;;;;;;5122510;27;20198;-76
2021/12/13 07:14:19;;;;;;;15.23;10.23;;;8.10;99.90;;;;;;5122477;27;20237;-76
2021/12/13 07:16:50;;;;;;;14.90;10.37;;;8.00;99.90;;;;;;5119404;27;20285;-77
2021/12/13 07:19:23;;;;;;;15.60;9.27;;;8.00;99.90;;;;;;5125033;27;20522;-76
2021/12/13 07:21:56;;;;;;;14.63;9.73;;;8.00;99.90;;;;;;5126520;27;20191;-76
2021/12/13 07:24:40;;;;;;;16.10;10.40;;;8.00;99.90;;;;;;5119857;27;20209;-76
2021/12/13 07:27:11;;;;;;;15.90;9.77;;;8.00;99.90;;;;;;5120209;27;20254;-76
2021/12/13 07:29:43;;;;;;;14.63;8.77;;;8.00;99.90;;;;;;5124154;27;20232;-76
2021/12/13 07:32:18;;;;;;;11.33;8.40;;;8.00;99.90;;;;;;5124363;27;20280;-77
2021/12/13 07:34:58;;;;;;;12.37;8.43;;;7.90;99.90;;;;;;5120749;27;20316;-76
2021/12/13 07:37:46;;;;;;;13.17;7.77;;;7.90;99.90;;;;;;5124728;27;20282;-76
2021/12/13 07:40:27;;;;;;;13.07;7.90;;;7.90;99.90;;;;;;5126334;27;20544;-76
2021/12/13 07:42:59;;;;;;;9.43;7.37;;;8.00;99.90;;;;;;5124074;27;20206;-77
2021/12/13 07:45:33;;;;;;;9.40;7.00;;;8.00;99.90;;;;;;5127331;27;20305;-77
2021/12/13 07:48:06;;;;;;;9.23;6.50;;;8.00;99.90;;;;;;5116677;27;20288;-76
2021/12/13 07:50:34;;;;;;;9.33;6.70;;;8.00;99.90;;;;;;5119924;27;20236;-77
2021/12/13 07:53:05;;;;;;;8.07;6.40;;;8.00;99.90;;;;;;5129293;27;20344;-77
2021/12/13 07:55:33;;;;;;;11.27;7.30;;;8.10;99.90;;;;;;5122695;27;20278;-77
2021/12/13 07:58:04;;;;;;;8.93;6.33;;;8.10;99.90;;;;;;5127850;27;20280;-77
2021/12/13 08:00:38;;;;;;;9.67;6.40;;;8.10;99.90;;;;;;5117793;27;20206;-76
2021/12/13 08:03:08;;;;;;;9.67;6.47;;;8.10;99.90;;;;;;5115151;27;20305;-77
2021/12/13 08:05:39;;;;;;;7.23;5.93;;;8.10;99.90;;;;;;5129284;27;20250;-77
2021/12/13 08:08:09;;;;;;;8.13;5.93;;;8.20;99.90;;;;;;5121360;27;20201;-77
2021/12/13 08:10:39;;;;;;;9.63;6.27;;;8.20;99.90;;;;;;5111898;28;20285;-77
2021/12/13 08:13:09;;;;;;;6.83;5.27;;;8.20;99.90;;;;;;5111531;28;20226;-77
2021/12/13 08:15:40;;;;;;;6.23;5.30;;;8.30;99.90;;;;;;5116489;27;20294;-76
2021/12/13 08:18:09;;;;;;;6.47;4.90;;;8.40;99.90;;;;;;5120660;27;20317;-76
2021/12/13 08:20:43;;;;;;;6.83;4.70;;;8.50;99.90;;;;;;5132189;27;20589;-76
2021/12/13 08:23:18;;;;;;;5.50;4.37;;;8.60;99.90;;;;;;5113683;27;20612;-76
2021/12/13 08:25:47;;;;;;;5.07;4.10;;;8.70;99.90;;;;;;5112490;27;20773;-76
2021/12/13 08:28:21;;;;;;;5.87;4.00;;;8.80;99.90;;;;;;5129117;27;20643;-76
2021/12/13 08:30:52;;;;;;;5.53;4.17;;;8.80;99.90;;;;;;5117693;27;20195;-76
2021/12/13 08:33:22;;;;;;;4.50;3.67;;;8.80;99.90;;;;;;5122242;27;20207;-76
2021/12/13 08:35:52;;;;;;;4.67;3.90;;;8.90;99.90;;;;;;5119855;27;20281;-77
2021/12/13 08:38:35;;;;;;;6.50;4.00;;;8.90;99.90;;;;;;5127566;27;20252;-76
2021/12/13 08:41:08;;;;;;;6.50;4.13;;;8.90;99.90;;;;;;5112251;28;20234;-76
2021/12/13 08:43:40;;;;;;;5.83;5.10;;;8.90;99.90;;;;;;5121845;28;20228;-76
2021/12/13 08:46:12;;;;;;;6.93;4.50;;;8.90;99.90;;;;;;5116780;27;20642;-76
2021/12/13 08:48:48;;;;;;;5.87;4.37;;;8.90;99.90;;;;;;5127748;28;20287;-76
2021/12/13 08:51:20;;;;;;;5.43;4.13;;;9.00;99.90;;;;;;5111527;28;20281;-76
2021/12/13 08:53:58;;;;;;;5.43;4.33;;;9.00;99.90;;;;;;5119978;27;20201;-75
2021/12/13 08:56:28;;;;;;;5.70;4.90;;;9.10;99.90;;;;;;5116109;28;20197;-76
2021/12/13 08:58:59;;;;;;;6.37;3.90;;;9.10;99.90;;;;;;5116584;28;20643;-76
2021/12/13 09:01:37;;;;;;;4.93;4.10;;;9.10;99.90;;;;;;5119981;27;20226;-76
2021/12/13 09:04:05;;;;;;;6.23;4.47;;;9.10;99.90;;;;;;5117456;27;20340;-76
2021/12/13 09:06:34;;;;;;;5.30;4.67;;;9.20;99.90;;;;;;5123143;27;20204;-76
2021/12/13 09:09:09;;;;;;;5.03;4.10;;;9.30;99.90;;;;;;5120978;27;20291;-76
2021/12/13 09:11:40;;;;;;;5.20;4.17;;;9.30;99.90;;;;;;5128612;27;20204;-76
2021/12/13 09:14:15;;;;;;;5.70;3.67;;;9.40;99.90;;;;;;5122774;27;20209;-76
2021/12/13 09:17:06;;;;;;;5.23;3.83;;;9.50;99.90;;;;;;5132525;27;20197;-76
2021/12/13 09:19:37;;;;;;;4.53;3.87;;;9.50;99.90;;;;;;5122891;27;20509;-76
2021/12/13 09:22:10;;;;;;;4.90;3.43;;;9.60;99.90;;;;;;5126107;27;20226;-76
2021/12/13 09:24:43;;;;;;;3.50;3.13;;;9.70;99.90;;;;;;5121077;27;20256;-76
2021/12/13 09:27:25;;;;;;;4.57;3.47;;;9.70;99.90;;;;;;5127721;27;20293;-76
2021/12/13 09:29:57;;;;;;;3.90;3.40;;;9.70;99.90;;;;;;5129981;27;20250;-77
2021/12/13 09:32:34;;;;;;;4.37;3.23;;;9.70;99.90;;;;;;5127467;27;20427;-76
2021/12/13 09:35:38;;;;;;;3.90;3.27;;;9.80;99.90;;;;;;5129969;27;20610;-76
2021/12/13 09:38:43;;;;;;;3.93;3.07;;;9.80;99.90;;;;;;5121595;27;20315;-76
2021/12/13 09:41:38;;;;;;;4.03;3.23;;;9.80;99.90;;;;;;5099414;27;20196;-76
2021/12/13 09:44:17;;;;;;;4.83;3.30;;;9.90;99.90;;;;;;5111331;27;20296;-75
2021/12/13 09:46:48;;;;;;;4.37;3.40;;;9.80;99.90;;;;;;5128242;27;20571;-77
2021/12/13 09:49:23;;;;;;;5.20;3.63;;;9.80;99.90;;;;;;5117461;27;20288;-76
2021/12/13 09:51:54;;;;;;;3.50;2.97;;;9.80;99.90;;;;;;5129827;27;20317;-75
2021/12/13 09:54:25;;;;;;;5.47;3.50;;;9.80;99.90;;;;;;5120223;27;20683;-76
2021/12/13 09:56:54;;;;;;;4.13;2.80;;;9.90;99.90;;;;;;5126863;27;20284;-76
2021/12/13 09:59:27;;;;;;;3.77;3.10;;;9.90;99.90;;;;;;5125768;27;20580;-76
2021/12/13 10:01:57;;;;;;;3.27;2.90;;;9.90;99.90;;;;;;5119321;27;20301;-76
2021/12/13 10:04:31;;;;;;;3.40;2.70;;;9.90;99.90;;;;;;5125944;27;20249;-76
2021/12/13 10:07:01;;;;;;;2.90;2.50;;;9.80;99.90;;;;;;5116157;27;20281;-76
2021/12/13 10:09:34;;;;;;;3.93;2.70;;;9.80;99.90;;;;;;5115048;27;20228;-77
2021/12/13 10:12:05;;;;;;;3.17;2.70;;;9.90;99.90;;;;;;5122985;27;20669;-76
2021/12/13 10:14:35;;;;;;;2.77;2.47;;;9.90;99.90;;;;;;5132415;27;20224;-75
2021/12/13 10:17:05;;;;;;;2.80;2.53;;;9.90;99.90;;;;;;5135209;27;20193;-76
2021/12/13 10:19:39;;;;;;;2.80;2.50;;;9.90;99.90;;;;;;5132974;27;20657;-76
2021/12/13 10:22:08;;;;;;;4.43;3.03;;;9.90;99.90;;;;;;5124418;27;20279;-76
2021/12/13 10:24:38;;;;;;;2.60;2.20;;;9.90;99.90;;;;;;5113834;28;20642;-76
2021/12/13 10:27:08;;;;;;;3.37;2.17;;;9.90;99.90;;;;;;5114333;27;20281;-76
2021/12/13 10:29:36;;;;;;;3.53;2.37;;;9.90;99.90;;;;;;5114242;28;20285;-76
2021/12/13 10:32:09;;;;;;;3.40;2.30;;;10.00;99.90;;;;;;5117089;27;20743;-76
2021/12/13 10:34:41;;;;;;;3.97;2.80;;;10.00;99.90;;;;;;5126943;27;20599;-76
2021/12/13 10:37:11;;;;;;;2.50;2.30;;;10.00;99.90;;;;;;5117681;27;20236;-75
2021/12/13 10:39:43;;;;;;;4.43;2.83;;;10.00;99.90;;;;;;5117137;27;20308;-76
2021/12/13 10:42:13;;;;;;;2.90;2.47;;;10.10;99.90;;;;;;5130762;27;20275;-76
2021/12/13 10:44:44;;;;;;;2.60;2.30;;;10.00;99.90;;;;;;5121017;27;20217;-75
2021/12/13 10:47:16;;;;;;;4.13;2.90;;;10.00;99.90;;;;;;5122362;27;20272;-75
2021/12/13 10:49:48;;;;;;;3.00;2.70;;;10.00;99.90;;;;;;5129619;27;20220;-76
2021/12/13 10:52:22;;;;;;;3.27;2.60;;;10.00;99.90;;;;;;5114949;27;20386;-76
2021/12/13 10:54:53;;;;;;;3.00;2.70;;;9.80;99.90;;;;;;5131058;27;20283;-75
2021/12/13 10:57:23;;;;;;;3.10;2.70;;;9.80;99.90;;;;;;5122066;27;20683;-75
2021/12/13 10:59:50;;;;;;;3.97;2.90;;;9.70;99.90;;;;;;5130243;27;20288;-76
2021/12/13 11:02:23;;;;;;;3.83;3.30;;;9.80;99.90;;;;;;5113990;27;20284;-75
2021/12/13 11:04:56;;;;;;;3.47;3.10;;;9.90;99.90;;;;;;5118381;27;20267;-75
2021/12/13 11:07:24;;;;;;;4.57;3.60;;;9.90;99.90;;;;;;5117503;27;20335;-76
2021/12/13 11:09:53;;;;;;;6.63;3.20;;;10.00;99.90;;;;;;5124843;27;20304;-75
2021/12/13 11:12:24;;;;;;;3.47;2.93;;;10.00;99.90;;;;;;5130828;27;20243;-76
2021/12/13 11:14:55;;;;;;;3.77;3.07;;;10.00;99.90;;;;;;5122530;27;20319;-75
2021/12/13 11:17:25;;;;;;;3.40;3.10;;;9.80;99.90;;;;;;5132577;27;20280;-75
2021/12/13 11:19:57;;;;;;;3.50;3.07;;;9.70;99.90;;;;;;5115276;27;20738;-74
2021/12/13 11:22:32;;;;;;;3.97;3.27;;;9.70;99.90;;;;;;5117140;27;20293;-76
2021/12/13 11:25:01;;;;;;;3.83;3.43;;;9.70;99.90;;;;;;5117989;27;20301;-75
2021/12/13 11:27:32;;;;;;;5.20;3.10;;;9.70;99.90;;;;;;5132932;27;20228;-75
2021/12/13 11:30:05;;;;;;;4.63;3.33;;;9.70;99.90;;;;;;5125914;27;20233;-76
2021/12/13 11:33:09;;;;;;;4.77;3.23;;;9.70;99.90;;;;;;5121177;27;20197;-75
2021/12/13 11:36:18;;;;;;;4.37;3.57;;;9.70;99.90;;;;;;5111724;28;20201;-74
2021/12/13 11:39:21;;;;;;;3.70;3.30;;;9.80;99.90;;;;;;5112022;28;20295;-74
2021/12/13 11:42:30;;;;;;;4.00;3.60;;;9.70;99.90;;;;;;5122874;27;20236;-74
2021/12/13 11:45:36;;;;;;;4.13;3.73;;;9.70;99.90;;;;;;5120605;27;20300;-74
2021/12/13 11:48:33;;;;;;;4.77;4.10;;;9.70;99.90;;;;;;5115858;27;20283;-76
2021/12/13 11:51:15;;;;;;;4.80;4.20;;;9.70;99.90;;;;;;5120426;27;20731;-73
2021/12/13 11:54:24;;;;;;;4.80;4.10;;;9.70;99.90;;;;;;5126063;27;20287;-76
2021/12/13 11:57:23;;;;;;;4.63;4.13;;;9.80;99.90;;;;;;5056038;28;20290;-75
2021/12/13 12:00:03;;;;;;;5.20;4.67;;;9.70;99.90;;;;;;5048294;28;20735;-76
2021/12/13 12:02:39;;;;;;;4.73;4.23;;;9.70;99.90;;;;;;5048316;28;20207;-77
2021/12/13 12:05:42;;;;;;;5.83;5.23;;;9.60;99.90;;;;;;5057015;28;20368;-76
2021/12/13 12:08:45;;;;;;;9.63;7.13;;;9.60;99.90;;;;;;5046950;28;20296;-75
2021/12/13 12:11:33;;;;;;;7.73;6.47;;;9.70;99.90;;;;;;4996946;28;20279;-76
2021/12/13 12:14:06;;;;;;;6.17;5.57;;;9.60;99.90;;;;;;4998907;28;20304;-77
2021/12/13 12:16:37;;;;;;;5.77;5.17;;;9.60;99.90;;;;;;4995314;28;20197;-77
2021/12/13 12:19:05;;;;;;;5.70;5.20;;;9.60;99.90;;;;;;4986398;28;20287;-77
2021/12/13 12:21:40;;;;;;;6.20;5.60;;;9.60;99.90;;;;;;5008333;28;20239;-77
2021/12/13 12:24:10;;;;;;;6.10;5.50;;;9.50;99.90;;;;;;5002967;28;20236;-76
2021/12/13 12:26:38;;;;;;;7.23;6.50;;;9.50;99.90;;;;;;5009437;28;20315;-76
2021/12/13 12:29:12;;;;;;;6.97;6.07;;;9.50;99.90;;;;;;4992240;28;20282;-77
2021/12/13 12:31:42;;;;;;;7.80;6.60;;;9.60;99.90;;;;;;4978671;28;20376;-77
2021/12/13 12:34:11;;;;;;;9.87;8.40;;;9.60;99.90;;;;;;5073386;28;20216;-76
2021/12/13 12:36:45;;;;;;;8.47;7.57;;;9.70;99.90;;;;;;5064526;28;20264;-77
2021/12/13 12:39:49;;;;;;;7.33;6.00;;;9.80;99.90;;;;;;5076839;28;21197;-77
2021/12/13 12:42:26;;;;;;;6.70;6.00;;;9.60;99.90;;;;;;5071552;28;20251;-77
2021/12/13 12:45:09;;;;;;;5.57;4.80;;;9.50;99.90;;;;;;5078011;28;20240;-77
2021/12/13 12:48:12;;;;;;;5.73;5.00;;;9.50;99.90;;;;;;5098535;28;20217;-76
2021/12/13 12:50:44;;;;;;;5.10;4.60;;;9.50;99.90;;;;;;5120394;28;20288;-76
2021/12/13 12:53:14;;;;;;;6.47;5.50;;;9.50;99.90;;;;;;5122732;28;20203;-75
2021/12/13 12:55:45;;;;;;;5.97;5.37;;;9.40;99.90;;;;;;5131319;27;20285;-77
2021/12/13 12:58:15;;;;;;;6.97;5.87;;;9.40;99.90;;;;;;5127370;27;20859;-76
2021/12/13 13:00:45;;;;;;;5.97;5.37;;;9.40;99.90;;;;;;5118931;28;20637;-77
2021/12/13 13:03:16;;;;;;;6.23;5.63;;;9.40;99.90;;;;;;5110605;28;20689;-76
2021/12/13 13:05:43;;;;;;;5.90;5.30;;;9.50;99.90;;;;;;5110662;28;20574;-76
2021/12/13 13:08:11;;;;;;;5.33;4.83;;;9.50;99.90;;;;;;5110935;28;20285;-76
2021/12/13 13:10:50;;;;;;;6.80;5.20;;;9.40;99.90;;;;;;5111422;28;20202;-77
2021/12/13 13:13:18;;;;;;;5.67;5.10;;;9.50;99.90;;;;;;5111077;28;20229;-77
2021/12/13 13:15:52;;;;;;;6.37;5.27;;;9.50;99.90;;;;;;5111364;28;20598;-77
2021/12/13 13:18:24;;;;;;;6.47;5.30;;;9.40;99.90;;;;;;5111261;28;20281;-77
2021/12/13 13:20:55;;;;;;;5.63;5.00;;;9.30;99.90;;;;;;5111879;28;20301;-77
2021/12/13 13:23:25;;;;;;;5.57;5.03;;;9.40;99.90;;;;;;5111338;28;20610;-76
2021/12/13 13:25:56;;;;;;;5.60;4.97;;;9.40;99.90;;;;;;5110745;28;20253;-77
2021/12/13 13:28:25;;;;;;;6.63;5.10;;;9.40;99.90;;;;;;5110991;28;20634;-76